createdAt,value
2017-12-20T00:00:29.578Z,79.60
2017-12-20T00:01:03.244Z,79.50
2017-12-20T00:01:37.703Z,79.60
2017-12-20T00:02:11.389Z,80.10
2017-12-20T00:02:45.069Z,79.60
2017-12-20T00:03:18.566Z,79.50
2017-12-20T00:03:52.241Z,79.50
2017-12-20T00:04:25.900Z,79.50
2017-12-20T00:04:59.570Z,79.40
2017-12-20T00:05:34.071Z,79.30
2017-12-20T00:06:07.728Z,79.30
2017-12-20T00:06:41.403Z,79.20
2017-12-20T00:07:15.076Z,79.20
2017-12-20T00:07:49.034Z,79.20
2017-12-20T00:08:22.695Z,79.20
2017-12-20T00:08:56.367Z,79.20
2017-12-20T00:09:30.032Z,79.20
2017-12-20T00:10:03.687Z,79.10
2017-12-20T00:10:37.334Z,79.10
2017-12-20T00:11:10.994Z,79.10
2017-12-20T00:11:45.418Z,79.20
2017-12-20T00:12:19.076Z,79.20
2017-12-20T00:12:53.547Z,79.20
2017-12-20T00:13:27.210Z,79.20
2017-12-20T00:14:01.308Z,79.20
2017-12-20T00:14:34.967Z,79.20
2017-12-20T00:15:09.402Z,79.20
2017-12-20T00:15:43.053Z,79.20
2017-12-20T00:16:16.763Z,79.20
2017-12-20T00:16:51.189Z,79.10
2017-12-20T00:17:24.853Z,79.10
2017-12-20T00:17:59.290Z,79.10
2017-12-20T00:18:32.956Z,79.10
2017-12-20T00:19:07.392Z,79.00
2017-12-20T00:19:41.064Z,79.10
2017-12-20T00:20:14.724Z,79.10
2017-12-20T00:20:48.382Z,79.10
2017-12-20T00:21:22.050Z,79.10
2017-12-20T00:21:55.721Z,79.10
2017-12-20T00:22:29.380Z,79.10
2017-12-20T00:23:03.056Z,79.10
2017-12-20T00:23:36.717Z,79.10
2017-12-20T00:24:10.380Z,78.90
2017-12-20T00:24:44.027Z,78.80
2017-12-20T00:25:17.714Z,78.80
2017-12-20T00:25:51.375Z,78.70
2017-12-20T00:26:25.074Z,78.60
2017-12-20T00:26:58.737Z,78.60
2017-12-20T00:27:32.065Z,78.50
2017-12-20T00:28:05.737Z,78.50
2017-12-20T00:28:39.456Z,78.50
2017-12-20T00:29:13.230Z,78.60
2017-12-20T00:29:46.885Z,78.60
2017-12-20T00:30:20.589Z,78.60
2017-12-20T00:30:54.239Z,78.60
2017-12-20T00:31:27.923Z,78.60
2017-12-20T00:32:02.361Z,78.60
2017-12-20T00:32:36.010Z,78.60
2017-12-20T00:33:10.536Z,78.50
2017-12-20T00:33:44.192Z,78.50
2017-12-20T00:34:17.847Z,78.40
2017-12-20T00:34:51.518Z,78.90
2017-12-20T00:35:25.163Z,78.40
2017-12-20T00:35:58.825Z,78.30
2017-12-20T00:36:32.474Z,78.20
2017-12-20T00:37:06.152Z,78.30
2017-12-20T00:37:39.841Z,78.30
2017-12-20T00:38:13.533Z,78.20
2017-12-20T00:38:47.966Z,78.30
2017-12-20T00:39:21.631Z,78.30
2017-12-20T00:39:56.056Z,78.40
2017-12-20T00:40:29.714Z,78.40
2017-12-20T00:41:04.158Z,78.20
2017-12-20T00:41:37.818Z,78.20
2017-12-20T00:42:12.253Z,78.00
2017-12-20T00:42:45.920Z,78.00
2017-12-20T00:43:20.366Z,77.90
2017-12-20T00:43:54.016Z,77.90
2017-12-20T00:44:27.666Z,78.00
2017-12-20T00:45:01.309Z,78.00
2017-12-20T00:45:34.979Z,78.10
2017-12-20T00:46:09.458Z,78.20
2017-12-20T00:46:43.123Z,78.20
2017-12-20T00:47:16.778Z,78.80
2017-12-20T00:47:51.195Z,78.30
2017-12-20T00:48:24.884Z,78.30
2017-12-20T00:48:58.542Z,78.30
2017-12-20T00:49:32.981Z,78.50
2017-12-20T00:50:06.643Z,78.40
2017-12-20T00:50:41.094Z,78.40
2017-12-20T00:51:14.787Z,78.30
2017-12-20T00:51:48.442Z,78.20
2017-12-20T00:52:22.104Z,78.10
2017-12-20T00:52:55.815Z,78.10
2017-12-20T00:53:30.303Z,78.20
2017-12-20T00:54:03.962Z,78.10
2017-12-20T00:54:37.666Z,78.20
2017-12-20T00:55:11.320Z,78.20
2017-12-20T00:55:44.990Z,78.10
2017-12-20T00:56:19.201Z,78.20
2017-12-20T00:56:52.863Z,78.20
2017-12-20T00:57:27.342Z,78.30
2017-12-20T00:58:01.116Z,78.30
2017-12-20T00:58:34.806Z,78.30
2017-12-20T00:59:08.459Z,78.20
2017-12-20T00:59:42.897Z,78.10
2017-12-20T01:00:16.623Z,78.00
2017-12-20T01:00:53.058Z,78.10
2017-12-20T01:01:26.723Z,78.10
2017-12-20T01:02:00.433Z,78.10
2017-12-20T01:02:34.105Z,78.10
2017-12-20T01:03:07.765Z,78.20
2017-12-20T01:03:42.229Z,78.30
2017-12-20T01:04:15.598Z,78.30
2017-12-20T01:04:50.167Z,78.40
2017-12-20T01:05:23.503Z,78.40
2017-12-20T01:05:56.913Z,78.40
2017-12-20T01:06:30.575Z,78.40
2017-12-20T01:07:03.919Z,78.40
2017-12-20T01:07:36.907Z,78.40
2017-12-20T01:08:10.592Z,78.30
2017-12-20T01:08:44.301Z,78.30
2017-12-20T01:09:17.976Z,78.40
2017-12-20T01:09:51.626Z,78.40
2017-12-20T01:10:26.121Z,78.50
2017-12-20T01:10:59.479Z,78.40
2017-12-20T01:11:33.125Z,78.40
2017-12-20T01:12:06.803Z,78.40
2017-12-20T01:12:41.222Z,78.50
2017-12-20T01:13:14.902Z,78.50
2017-12-20T01:13:49.394Z,78.50
2017-12-20T01:14:23.811Z,78.90
2017-12-20T01:14:58.251Z,78.50
2017-12-20T01:15:31.926Z,78.50
2017-12-20T01:16:05.593Z,78.50
2017-12-20T01:16:40.100Z,78.50
2017-12-20T01:17:13.787Z,78.50
2017-12-20T01:17:48.250Z,78.50
2017-12-20T01:18:21.921Z,78.50
2017-12-20T01:18:55.654Z,78.50
2017-12-20T01:19:29.307Z,78.40
2017-12-20T01:20:02.969Z,78.30
2017-12-20T01:20:37.401Z,78.40
2017-12-20T01:21:11.107Z,78.40
2017-12-20T01:21:45.687Z,78.40
2017-12-20T01:22:19.366Z,78.40
2017-12-20T01:22:53.027Z,78.50
2017-12-20T01:23:26.669Z,78.50
2017-12-20T01:24:00.342Z,78.60
2017-12-20T01:24:33.991Z,78.60
2017-12-20T01:25:07.709Z,78.70
2017-12-20T01:25:42.133Z,79.00
2017-12-20T01:26:15.801Z,79.00
2017-12-20T01:26:50.219Z,79.00
2017-12-20T01:27:24.658Z,79.20
2017-12-20T01:27:58.312Z,79.20
2017-12-20T01:28:31.978Z,79.20
2017-12-20T01:29:05.741Z,79.20
2017-12-20T01:29:39.402Z,79.30
2017-12-20T01:30:13.061Z,79.40
2017-12-20T01:30:47.486Z,79.50
2017-12-20T01:31:21.148Z,79.50
2017-12-20T01:31:55.570Z,79.60
2017-12-20T01:32:29.994Z,79.70
2017-12-20T01:33:03.675Z,79.70
2017-12-20T01:33:38.103Z,79.80
2017-12-20T01:34:11.805Z,79.80
2017-12-20T01:34:45.468Z,79.80
2017-12-20T01:35:19.130Z,79.90
2017-12-20T01:35:53.550Z,80.50
2017-12-20T01:36:27.991Z,80.00
2017-12-20T01:37:03.112Z,80.00
2017-12-20T01:37:36.770Z,80.00
2017-12-20T01:38:11.191Z,80.00
2017-12-20T01:38:44.862Z,79.90
2017-12-20T01:39:19.325Z,80.00
2017-12-20T01:39:52.996Z,80.00
2017-12-20T01:40:26.310Z,80.00
2017-12-20T01:40:59.313Z,80.00
2017-12-20T01:41:33.278Z,80.10
2017-12-20T01:42:06.293Z,80.10
2017-12-20T01:42:40.067Z,80.10
2017-12-20T01:43:13.836Z,80.20
2017-12-20T01:43:47.611Z,80.20
2017-12-20T01:44:21.327Z,80.10
2017-12-20T01:44:55.011Z,80.10
2017-12-20T01:45:29.446Z,80.80
2017-12-20T01:46:03.551Z,80.40
2017-12-20T01:46:38.043Z,80.40
2017-12-20T01:47:12.512Z,81.00
2017-12-20T01:47:46.202Z,80.30
2017-12-20T01:48:19.846Z,80.40
2017-12-20T01:48:54.270Z,80.50
2017-12-20T01:49:27.956Z,80.40
2017-12-20T01:50:01.641Z,80.60
2017-12-20T01:50:35.326Z,80.50
2017-12-20T01:51:09.009Z,80.60
2017-12-20T01:51:43.456Z,80.80
2017-12-20T01:52:17.196Z,80.80
2017-12-20T01:52:51.655Z,80.90
2017-12-20T01:53:25.317Z,80.80
2017-12-20T01:53:59.059Z,80.90
2017-12-20T01:54:32.775Z,80.80
2017-12-20T01:55:07.207Z,81.10
2017-12-20T01:55:40.218Z,81.00
2017-12-20T01:56:13.553Z,81.10
2017-12-20T01:56:47.311Z,81.20
2017-12-20T01:57:20.678Z,81.20
2017-12-20T01:57:53.675Z,81.20
2017-12-20T01:58:27.476Z,81.90
2017-12-20T01:59:01.253Z,81.30
2017-12-20T01:59:34.946Z,81.30
2017-12-20T02:00:08.620Z,81.30
2017-12-20T02:00:42.368Z,81.40
2017-12-20T02:01:16.043Z,81.30
2017-12-20T02:01:49.722Z,81.30
2017-12-20T02:02:23.826Z,81.30
2017-12-20T02:02:58.272Z,81.30
2017-12-20T02:03:31.757Z,81.30
2017-12-20T02:04:05.435Z,81.30
2017-12-20T02:04:39.134Z,81.90
2017-12-20T02:05:12.802Z,81.20
2017-12-20T02:05:46.486Z,81.30
2017-12-20T02:06:20.159Z,81.30
2017-12-20T02:06:54.614Z,81.30
2017-12-20T02:07:28.276Z,81.30
2017-12-20T02:08:01.951Z,81.40
2017-12-20T02:08:36.393Z,81.40
2017-12-20T02:09:10.069Z,81.30
2017-12-20T02:09:43.771Z,81.40
2017-12-20T02:10:17.439Z,81.40
2017-12-20T02:10:51.143Z,81.40
2017-12-20T02:11:24.942Z,81.40
2017-12-20T02:11:58.631Z,81.40
2017-12-20T02:12:31.638Z,81.40
2017-12-20T02:13:05.325Z,81.40
2017-12-20T02:13:38.998Z,81.40
2017-12-20T02:14:12.330Z,81.40
2017-12-20T02:14:46.803Z,81.40
2017-12-20T02:15:20.147Z,81.40
2017-12-20T02:15:53.811Z,81.40
2017-12-20T02:16:28.241Z,81.40
2017-12-20T02:17:01.909Z,81.30
2017-12-20T02:17:36.012Z,81.40
2017-12-20T02:18:10.454Z,81.40
2017-12-20T02:18:44.115Z,81.40
2017-12-20T02:19:17.114Z,81.40
2017-12-20T02:19:50.152Z,81.40
2017-12-20T02:20:23.919Z,81.50
2017-12-20T02:20:57.269Z,81.50
2017-12-20T02:21:30.270Z,81.50
2017-12-20T02:22:03.288Z,81.60
2017-12-20T02:22:36.300Z,81.60
2017-12-20T02:23:09.626Z,81.70
2017-12-20T02:23:43.619Z,81.60
2017-12-20T02:24:18.474Z,81.60
2017-12-20T02:24:51.843Z,81.60
2017-12-20T02:25:24.852Z,81.60
2017-12-20T02:25:57.846Z,81.60
2017-12-20T02:26:30.906Z,81.60
2017-12-20T02:27:03.907Z,81.60
2017-12-20T02:27:36.912Z,81.60
2017-12-20T02:28:09.917Z,82.10
2017-12-20T02:28:43.294Z,81.70
2017-12-20T02:29:16.627Z,81.70
2017-12-20T02:29:50.394Z,82.30
2017-12-20T02:30:23.768Z,81.70
2017-12-20T02:30:56.815Z,81.80
2017-12-20T02:31:29.824Z,81.80
2017-12-20T02:32:03.012Z,81.70
2017-12-20T02:32:36.035Z,81.80
2017-12-20T02:33:20.846Z,81.90
2017-12-20T02:33:53.859Z,81.90
2017-12-20T02:34:27.204Z,82.00
2017-12-20T02:35:00.259Z,82.00
2017-12-20T02:35:33.276Z,82.00
2017-12-20T02:36:06.278Z,82.00
2017-12-20T02:36:39.281Z,82.00
2017-12-20T02:37:12.293Z,82.10
2017-12-20T02:37:46.063Z,82.20
2017-12-20T02:38:31.773Z,82.30
2017-12-20T02:39:05.388Z,82.20
2017-12-20T02:39:38.733Z,82.30
2017-12-20T02:40:11.747Z,82.30
2017-12-20T02:40:45.815Z,82.30
2017-12-20T02:41:18.810Z,82.20
2017-12-20T02:41:51.809Z,82.20
2017-12-20T02:42:25.183Z,82.30
2017-12-20T02:42:58.518Z,82.30
2017-12-20T02:43:31.536Z,82.40
2017-12-20T02:44:04.539Z,82.40
2017-12-20T02:44:37.550Z,82.40
2017-12-20T02:45:10.910Z,82.30
2017-12-20T02:45:45.006Z,82.40
2017-12-20T02:46:19.467Z,82.40
2017-12-20T02:46:52.803Z,82.40
2017-12-20T02:47:26.571Z,82.40
2017-12-20T02:47:59.662Z,82.40
2017-12-20T02:48:33.418Z,82.60
2017-12-20T02:49:06.764Z,82.40
2017-12-20T02:49:39.769Z,82.60
2017-12-20T02:50:12.785Z,82.50
2017-12-20T02:50:46.562Z,82.60
2017-12-20T02:51:19.595Z,82.50
2017-12-20T02:51:52.968Z,82.50
2017-12-20T02:52:26.309Z,82.60
2017-12-20T02:53:00.088Z,82.80
2017-12-20T02:53:33.423Z,82.70
2017-12-20T02:54:06.877Z,82.80
2017-12-20T02:54:40.646Z,82.60
2017-12-20T02:55:13.681Z,82.60
2017-12-20T02:55:46.720Z,82.80
2017-12-20T02:56:19.754Z,82.60
2017-12-20T02:56:52.754Z,82.70
2017-12-20T02:57:26.532Z,82.80
2017-12-20T02:57:59.939Z,82.80
2017-12-20T02:58:33.102Z,82.80
2017-12-20T02:59:06.438Z,82.90
2017-12-20T02:59:39.434Z,82.60
2017-12-20T03:00:12.461Z,83.10
2017-12-20T03:00:45.476Z,83.00
2017-12-20T03:01:18.485Z,82.90
2017-12-20T03:01:51.514Z,82.90
2017-12-20T03:02:24.519Z,82.90
2017-12-20T03:02:57.522Z,82.90
2017-12-20T03:03:31.308Z,82.90
2017-12-20T03:04:05.424Z,82.90
2017-12-20T03:04:38.765Z,82.90
2017-12-20T03:05:12.103Z,82.90
2017-12-20T03:05:45.108Z,83.10
2017-12-20T03:06:18.111Z,83.10
2017-12-20T03:06:51.943Z,83.20
2017-12-20T03:07:25.291Z,83.00
2017-12-20T03:07:59.060Z,83.20
2017-12-20T03:08:32.054Z,83.10
2017-12-20T03:09:06.156Z,83.20
2017-12-20T03:09:40.595Z,83.00
2017-12-20T03:10:13.606Z,83.00
2017-12-20T03:10:46.952Z,83.00
2017-12-20T03:11:20.494Z,83.00
2017-12-20T03:11:53.551Z,83.00
2017-12-20T03:12:26.663Z,83.00
2017-12-20T03:13:00.497Z,83.20
2017-12-20T03:13:33.498Z,83.20
2017-12-20T03:14:06.504Z,83.20
2017-12-20T03:14:40.965Z,83.20
2017-12-20T03:15:13.966Z,83.20
2017-12-20T03:15:46.970Z,83.20
2017-12-20T03:16:20.661Z,83.30
2017-12-20T03:16:54.382Z,83.20
2017-12-20T03:17:28.050Z,83.20
2017-12-20T03:18:01.722Z,83.20
2017-12-20T03:18:35.386Z,83.30
2017-12-20T03:19:09.045Z,83.30
2017-12-20T03:19:42.714Z,83.30
2017-12-20T03:20:16.036Z,83.30
2017-12-20T03:20:49.698Z,83.30
2017-12-20T03:21:23.390Z,83.40
2017-12-20T03:21:56.771Z,83.30
2017-12-20T03:22:30.430Z,83.30
2017-12-20T03:23:04.107Z,83.30
2017-12-20T03:23:38.535Z,83.30
2017-12-20T03:24:12.207Z,83.20
2017-12-20T03:24:46.315Z,83.20
2017-12-20T03:25:19.988Z,83.20
2017-12-20T03:25:54.087Z,83.30
2017-12-20T03:26:28.195Z,83.30
2017-12-20T03:27:01.911Z,83.20
2017-12-20T03:27:35.278Z,83.20
2017-12-20T03:28:08.620Z,83.20
2017-12-20T03:28:41.954Z,83.30
2017-12-20T03:29:15.278Z,83.20
2017-12-20T03:29:49.005Z,83.20
2017-12-20T03:30:22.799Z,83.20
2017-12-20T03:30:56.462Z,83.20
2017-12-20T03:31:30.910Z,83.20
2017-12-20T03:32:04.515Z,83.20
2017-12-20T03:32:38.177Z,83.20
2017-12-20T03:33:11.864Z,83.20
2017-12-20T03:33:45.533Z,83.20
2017-12-20T03:34:19.968Z,83.20
2017-12-20T03:34:53.741Z,83.10
2017-12-20T03:35:28.193Z,83.20
2017-12-20T03:36:01.188Z,83.20
2017-12-20T03:36:34.854Z,83.20
2017-12-20T03:37:08.559Z,83.20
2017-12-20T03:37:42.226Z,83.10
2017-12-20T03:38:15.899Z,83.00
2017-12-20T03:38:49.571Z,83.00
2017-12-20T03:39:24.066Z,83.00
2017-12-20T03:39:57.735Z,83.00
2017-12-20T03:40:31.415Z,83.00
2017-12-20T03:41:05.087Z,83.00
2017-12-20T03:41:38.745Z,83.00
2017-12-20T03:42:13.199Z,83.20
2017-12-20T03:42:46.862Z,83.20
2017-12-20T03:43:20.536Z,83.20
2017-12-20T03:43:54.219Z,83.20
2017-12-20T03:44:28.327Z,83.20
2017-12-20T03:45:02.844Z,83.20
2017-12-20T03:45:36.617Z,83.30
2017-12-20T03:46:11.035Z,83.20
2017-12-20T03:46:44.383Z,83.20
2017-12-20T03:47:18.080Z,83.20
2017-12-20T03:47:52.506Z,83.30
2017-12-20T03:48:26.169Z,83.30
2017-12-20T03:48:59.954Z,83.20
2017-12-20T03:49:34.078Z,83.30
2017-12-20T03:50:08.189Z,83.30
2017-12-20T03:50:42.313Z,83.20
2017-12-20T03:51:15.318Z,83.20
2017-12-20T03:51:48.332Z,83.20
2017-12-20T03:52:22.129Z,83.30
2017-12-20T03:52:56.234Z,83.30
2017-12-20T03:53:29.233Z,83.30
2017-12-20T03:54:02.580Z,83.30
2017-12-20T03:54:36.382Z,83.40
2017-12-20T03:55:09.382Z,83.30
2017-12-20T03:55:42.388Z,83.30
2017-12-20T03:56:15.391Z,83.30
2017-12-20T03:56:49.827Z,83.20
2017-12-20T03:57:23.521Z,83.30
2017-12-20T03:57:57.189Z,83.30
2017-12-20T03:58:30.912Z,83.30
2017-12-20T03:59:04.593Z,83.30
2017-12-20T03:59:38.262Z,83.20
2017-12-20T04:00:11.925Z,83.20
2017-12-20T04:00:45.596Z,83.20
2017-12-20T04:01:19.263Z,83.20
2017-12-20T04:01:52.624Z,83.10
2017-12-20T04:02:26.323Z,83.10
2017-12-20T04:02:59.997Z,83.10
2017-12-20T04:03:33.330Z,83.10
2017-12-20T04:04:07.014Z,83.10
2017-12-20T04:04:40.686Z,83.10
2017-12-20T04:05:14.069Z,83.00
2017-12-20T04:05:47.741Z,83.00
2017-12-20T04:06:21.410Z,82.90
2017-12-20T04:06:55.090Z,82.90
2017-12-20T04:07:28.787Z,82.90
2017-12-20T04:08:03.227Z,82.80
2017-12-20T04:08:36.885Z,82.90
2017-12-20T04:09:10.230Z,82.90
2017-12-20T04:09:43.883Z,82.70
2017-12-20T04:10:17.566Z,82.70
2017-12-20T04:10:51.233Z,82.70
2017-12-20T04:11:25.674Z,82.70
2017-12-20T04:11:59.336Z,82.70
2017-12-20T04:12:33.023Z,82.80
2017-12-20T04:13:07.489Z,82.80
2017-12-20T04:13:41.163Z,82.80
2017-12-20T04:14:14.846Z,82.80
2017-12-20T04:14:48.524Z,82.90
2017-12-20T04:15:22.216Z,82.90
2017-12-20T04:15:55.894Z,83.00
2017-12-20T04:16:29.562Z,83.00
2017-12-20T04:17:03.999Z,83.00
2017-12-20T04:17:37.697Z,82.90
2017-12-20T04:18:10.844Z,83.00
2017-12-20T04:18:44.519Z,83.10
2017-12-20T04:19:18.950Z,83.10
2017-12-20T04:19:52.635Z,82.90
2017-12-20T04:20:26.305Z,83.00
2017-12-20T04:21:00.775Z,82.90
2017-12-20T04:21:34.451Z,82.90
2017-12-20T04:22:08.119Z,82.90
2017-12-20T04:22:41.840Z,82.90
2017-12-20T04:23:15.508Z,82.80
2017-12-20T04:23:49.175Z,82.80
2017-12-20T04:24:22.853Z,82.90
2017-12-20T04:24:57.310Z,83.10
2017-12-20T04:25:32.780Z,83.10
2017-12-20T04:26:07.232Z,83.20
2017-12-20T04:26:40.890Z,83.20
2017-12-20T04:27:15.379Z,83.20
2017-12-20T04:27:49.073Z,83.20
2017-12-20T04:28:22.740Z,83.20
2017-12-20T04:28:56.398Z,83.20
2017-12-20T04:29:30.072Z,83.20
2017-12-20T04:30:03.417Z,83.10
2017-12-20T04:30:37.081Z,83.10
2017-12-20T04:31:10.754Z,83.00
2017-12-20T04:31:45.540Z,83.00
2017-12-20T04:32:21.016Z,83.00
2017-12-20T04:32:54.774Z,83.00
2017-12-20T04:33:28.995Z,83.10
2017-12-20T04:34:02.658Z,83.20
2017-12-20T04:34:36.321Z,83.20
2017-12-20T04:35:09.991Z,83.20
2017-12-20T04:35:43.671Z,83.20
2017-12-20T04:36:17.335Z,83.20
2017-12-20T04:36:51.006Z,83.30
2017-12-20T04:37:25.625Z,83.30
2017-12-20T04:37:59.326Z,83.20
2017-12-20T04:38:33.009Z,83.20
2017-12-20T04:39:06.703Z,83.20
2017-12-20T04:39:40.381Z,83.20
2017-12-20T04:40:14.051Z,83.20
2017-12-20T04:40:48.490Z,83.10
2017-12-20T04:41:22.207Z,83.10
2017-12-20T04:41:55.883Z,83.00
2017-12-20T04:42:29.526Z,83.00
2017-12-20T04:43:03.991Z,83.00
2017-12-20T04:43:37.661Z,83.00
2017-12-20T04:44:11.441Z,83.00
2017-12-20T04:44:45.285Z,82.90
2017-12-20T04:45:18.956Z,82.90
2017-12-20T04:45:52.629Z,82.90
2017-12-20T04:46:26.296Z,82.90
2017-12-20T04:46:59.963Z,82.80
2017-12-20T04:47:34.716Z,82.80
2017-12-20T04:48:08.471Z,82.80
2017-12-20T04:48:42.932Z,82.80
2017-12-20T04:49:16.593Z,82.80
2017-12-20T04:49:50.263Z,82.90
2017-12-20T04:50:24.694Z,82.90
2017-12-20T04:50:58.387Z,82.90
2017-12-20T04:51:32.050Z,82.80
2017-12-20T04:52:06.491Z,82.90
2017-12-20T04:52:40.234Z,82.90
2017-12-20T04:53:14.201Z,82.90
2017-12-20T04:53:47.893Z,83.40
2017-12-20T04:54:21.551Z,82.80
2017-12-20T04:54:55.233Z,82.80
2017-12-20T04:55:28.962Z,82.80
2017-12-20T04:56:02.631Z,82.80
2017-12-20T04:56:36.291Z,82.80
2017-12-20T04:57:10.741Z,82.70
2017-12-20T04:57:44.424Z,82.70
2017-12-20T04:58:18.124Z,82.60
2017-12-20T04:58:51.791Z,82.60
2017-12-20T04:59:25.467Z,82.50
2017-12-20T04:59:59.135Z,82.40
2017-12-20T05:00:33.566Z,82.50
2017-12-20T05:01:07.258Z,82.50
2017-12-20T05:01:40.917Z,82.50
2017-12-20T05:02:15.378Z,82.50
2017-12-20T05:02:49.809Z,82.50
2017-12-20T05:03:23.498Z,82.40
2017-12-20T05:03:57.175Z,82.60
2017-12-20T05:04:30.853Z,82.50
2017-12-20T05:05:04.524Z,82.50
2017-12-20T05:05:38.202Z,82.50
2017-12-20T05:06:11.880Z,82.60
2017-12-20T05:06:46.891Z,82.50
2017-12-20T05:07:21.338Z,82.60
2017-12-20T05:07:55.012Z,82.50
2017-12-20T05:08:29.450Z,82.70
2017-12-20T05:09:03.154Z,82.70
2017-12-20T05:09:36.841Z,82.70
2017-12-20T05:10:10.518Z,82.80
2017-12-20T05:10:44.202Z,82.80
2017-12-20T05:11:17.903Z,82.90
2017-12-20T05:11:51.589Z,82.90
2017-12-20T05:12:26.147Z,82.90
2017-12-20T05:13:00.645Z,83.00
2017-12-20T05:13:34.360Z,83.00
2017-12-20T05:14:08.038Z,82.90
2017-12-20T05:14:42.498Z,83.00
2017-12-20T05:15:16.197Z,82.90
2017-12-20T05:15:49.894Z,83.00
2017-12-20T05:16:23.586Z,83.00
2017-12-20T05:16:57.254Z,83.10
2017-12-20T05:17:30.937Z,83.10
2017-12-20T05:18:04.603Z,83.10
2017-12-20T05:18:38.321Z,83.10
2017-12-20T05:19:12.007Z,83.10
2017-12-20T05:19:45.677Z,83.20
2017-12-20T05:20:19.352Z,83.20
2017-12-20T05:20:53.058Z,83.20
2017-12-20T05:21:26.723Z,83.20
2017-12-20T05:22:01.185Z,83.20
2017-12-20T05:22:34.847Z,83.20
2017-12-20T05:23:08.518Z,83.10
2017-12-20T05:23:42.983Z,83.20
2017-12-20T05:24:16.663Z,83.20
2017-12-20T05:24:51.071Z,83.20
2017-12-20T05:25:24.746Z,83.10
2017-12-20T05:25:58.398Z,83.10
2017-12-20T05:26:32.836Z,83.00
2017-12-20T05:27:06.504Z,83.00
2017-12-20T05:27:40.169Z,83.00
2017-12-20T05:28:14.614Z,83.60
2017-12-20T05:28:48.297Z,83.00
2017-12-20T05:29:21.960Z,83.10
2017-12-20T05:29:56.499Z,83.10
2017-12-20T05:30:30.170Z,82.90
2017-12-20T05:31:04.990Z,83.10
2017-12-20T05:31:39.427Z,83.00
2017-12-20T05:32:13.098Z,82.90
2017-12-20T05:32:46.797Z,83.00
2017-12-20T05:33:20.453Z,83.00
2017-12-20T05:33:54.887Z,82.90
2017-12-20T05:34:28.557Z,82.90
2017-12-20T05:35:02.992Z,82.80
2017-12-20T05:35:36.657Z,82.70
2017-12-20T05:36:11.473Z,82.70
2017-12-20T05:36:45.906Z,82.70
2017-12-20T05:37:19.570Z,82.70
2017-12-20T05:37:54.009Z,82.70
2017-12-20T05:38:27.669Z,82.70
2017-12-20T05:39:02.101Z,82.70
2017-12-20T05:39:35.841Z,82.70
2017-12-20T05:40:09.520Z,82.70
2017-12-20T05:40:43.185Z,82.70
2017-12-20T05:41:16.543Z,82.70
2017-12-20T05:41:50.233Z,82.70
2017-12-20T05:42:23.927Z,82.70
2017-12-20T05:42:57.602Z,82.70
2017-12-20T05:43:31.270Z,82.70
2017-12-20T05:44:05.694Z,83.10
2017-12-20T05:44:40.153Z,82.60
2017-12-20T05:45:13.822Z,82.60
2017-12-20T05:45:47.494Z,82.60
2017-12-20T05:46:21.576Z,82.70
2017-12-20T05:46:56.010Z,82.60
2017-12-20T05:47:29.690Z,82.60
2017-12-20T05:48:03.368Z,82.50
2017-12-20T05:48:37.036Z,82.40
2017-12-20T05:49:11.481Z,83.00
2017-12-20T05:49:45.155Z,82.40
2017-12-20T05:50:18.834Z,82.30
2017-12-20T05:50:53.286Z,82.30
2017-12-20T05:51:27.355Z,82.20
2017-12-20T05:52:01.045Z,82.10
2017-12-20T05:52:34.847Z,82.10
2017-12-20T05:53:08.542Z,82.00
2017-12-20T05:53:42.213Z,81.90
2017-12-20T05:54:15.999Z,81.90
2017-12-20T05:54:51.367Z,81.80
2017-12-20T05:55:25.020Z,81.70
2017-12-20T05:55:59.458Z,81.60
2017-12-20T05:56:33.434Z,81.60
2017-12-20T05:57:07.169Z,81.50
2017-12-20T05:57:40.838Z,81.40
2017-12-20T05:58:14.561Z,81.30
2017-12-20T05:58:48.234Z,81.40
2017-12-20T05:59:21.911Z,81.40
2017-12-20T05:59:55.574Z,81.40
2017-12-20T06:00:29.250Z,81.30
2017-12-20T06:01:03.697Z,81.20
2017-12-20T06:01:38.064Z,81.20
2017-12-20T06:02:12.497Z,81.30
2017-12-20T06:02:46.162Z,81.10
2017-12-20T06:03:20.619Z,81.20
2017-12-20T06:03:54.290Z,81.20
2017-12-20T06:04:27.959Z,81.20
2017-12-20T06:05:01.732Z,81.10
2017-12-20T06:05:36.166Z,81.00
2017-12-20T06:06:09.841Z,81.00
2017-12-20T06:06:43.826Z,81.00
2017-12-20T06:07:18.251Z,81.10
2017-12-20T06:07:51.939Z,81.00
2017-12-20T06:08:25.630Z,81.00
2017-12-20T06:08:59.301Z,80.90
2017-12-20T06:09:33.787Z,80.90
2017-12-20T06:10:07.517Z,80.90
2017-12-20T06:10:41.222Z,80.90
2017-12-20T06:11:14.937Z,80.80
2017-12-20T06:11:49.009Z,80.80
2017-12-20T06:12:22.686Z,80.80
2017-12-20T06:12:56.361Z,80.80
2017-12-20T06:13:30.801Z,80.80
2017-12-20T06:14:04.475Z,80.80
2017-12-20T06:14:38.142Z,80.90
2017-12-20T06:15:12.663Z,80.80
2017-12-20T06:15:47.120Z,80.90
2017-12-20T06:16:20.780Z,80.90
2017-12-20T06:16:54.763Z,80.90
2017-12-20T06:17:28.443Z,80.90
2017-12-20T06:18:02.133Z,80.90
2017-12-20T06:18:36.571Z,81.00
2017-12-20T06:19:10.234Z,80.90
2017-12-20T06:19:44.666Z,80.90
2017-12-20T06:20:18.348Z,80.90
2017-12-20T06:20:52.015Z,80.90
2017-12-20T06:21:26.469Z,80.90
2017-12-20T06:22:00.632Z,80.90
2017-12-20T06:22:34.307Z,81.00
2017-12-20T06:23:08.816Z,81.00
2017-12-20T06:23:43.251Z,81.00
2017-12-20T06:24:16.938Z,81.00
2017-12-20T06:24:50.601Z,81.00
2017-12-20T06:25:25.080Z,81.00
2017-12-20T06:25:58.742Z,81.00
2017-12-20T06:26:32.491Z,81.00
2017-12-20T06:27:07.308Z,81.00
2017-12-20T06:27:41.747Z,81.10
2017-12-20T06:28:15.431Z,81.00
2017-12-20T06:28:49.107Z,81.00
2017-12-20T06:29:22.779Z,81.00
2017-12-20T06:29:57.217Z,81.10
2017-12-20T06:30:30.882Z,81.00
2017-12-20T06:31:05.320Z,80.90
2017-12-20T06:31:38.986Z,80.90
2017-12-20T06:32:12.986Z,80.90
2017-12-20T06:32:47.432Z,80.90
2017-12-20T06:33:21.140Z,80.90
2017-12-20T06:33:54.807Z,80.80
2017-12-20T06:34:28.484Z,80.80
2017-12-20T06:35:02.165Z,80.90
2017-12-20T06:35:35.827Z,80.90
2017-12-20T06:36:10.285Z,81.30
2017-12-20T06:36:43.631Z,81.00
2017-12-20T06:37:18.486Z,81.00
2017-12-20T06:37:52.291Z,81.00
2017-12-20T06:38:25.964Z,81.00
2017-12-20T06:39:00.746Z,81.00
2017-12-20T06:39:35.179Z,80.90
2017-12-20T06:40:08.852Z,80.90
2017-12-20T06:40:42.522Z,80.90
2017-12-20T06:41:16.972Z,81.00
2017-12-20T06:41:50.652Z,80.90
2017-12-20T06:42:24.718Z,81.00
2017-12-20T06:42:59.158Z,81.10
2017-12-20T06:43:32.890Z,81.00
2017-12-20T06:44:06.594Z,81.10
2017-12-20T06:44:40.298Z,81.10
2017-12-20T06:45:14.162Z,81.10
2017-12-20T06:45:47.820Z,81.10
2017-12-20T06:46:22.192Z,81.10
2017-12-20T06:46:56.651Z,81.20
2017-12-20T06:47:30.352Z,81.10
2017-12-20T06:48:04.023Z,81.10
2017-12-20T06:48:38.157Z,81.10
2017-12-20T06:49:11.872Z,81.10
2017-12-20T06:49:46.337Z,81.10
2017-12-20T06:50:20.053Z,81.10
2017-12-20T06:50:53.853Z,81.10
2017-12-20T06:51:28.354Z,81.10
2017-12-20T06:52:02.802Z,81.70
2017-12-20T06:52:36.760Z,81.10
2017-12-20T06:53:10.450Z,81.20
2017-12-20T06:53:44.895Z,81.20
2017-12-20T06:54:18.565Z,81.20
2017-12-20T06:54:53.871Z,81.20
2017-12-20T06:55:27.994Z,81.20
2017-12-20T06:56:02.190Z,81.20
2017-12-20T06:56:36.046Z,81.20
2017-12-20T06:57:09.721Z,81.20
2017-12-20T06:57:43.892Z,81.10
2017-12-20T06:58:17.937Z,81.10
2017-12-20T06:58:51.698Z,81.10
2017-12-20T06:59:26.186Z,81.10
2017-12-20T06:59:59.906Z,81.10
2017-12-20T07:00:34.743Z,81.10
2017-12-20T07:01:09.223Z,81.10
2017-12-20T07:01:43.983Z,81.10
2017-12-20T07:02:18.608Z,81.20
2017-12-20T07:02:52.803Z,81.20
2017-12-20T07:03:27.261Z,81.10
2017-12-20T07:04:00.947Z,81.10
2017-12-20T07:04:34.618Z,81.10
2017-12-20T07:05:08.302Z,81.10
2017-12-20T07:05:41.989Z,81.10
2017-12-20T07:06:15.669Z,81.10
2017-12-20T07:06:49.353Z,81.00
2017-12-20T07:07:25.119Z,81.00
2017-12-20T07:07:59.051Z,81.00
2017-12-20T07:08:32.758Z,81.00
2017-12-20T07:09:06.102Z,81.00
2017-12-20T07:09:39.788Z,80.90
2017-12-20T07:10:13.482Z,80.90
2017-12-20T07:10:47.186Z,81.00
2017-12-20T07:11:20.879Z,81.00
2017-12-20T07:11:54.547Z,81.00
2017-12-20T07:12:28.234Z,81.00
2017-12-20T07:13:02.026Z,81.00
2017-12-20T07:13:35.698Z,81.00
2017-12-20T07:14:09.378Z,81.00
2017-12-20T07:14:43.823Z,81.00
2017-12-20T07:15:17.570Z,81.00
2017-12-20T07:15:52.027Z,81.00